Boston, MA

2:09 AM EDT on September 04, 2015 (GMT -0400)
North End waterfront Boston | | Change Station
CLOSE
Current Station
Personal Weather Station
Location: Boston, MA
Elevation: 39 ft
Nearby Weather Stations

Elev 39 ft 42.37 °N, 71.05 °W | Updated 18 seconds ago

Mostly Cloudy
Mostly Cloudy
73.6 °F
Feels Like 72 °F
N
0.0
Wind Variable Wind from South
Gusts 0.0 mph

Today
High -- | Low -- °F
--% Chance of Precip.
Yesterday
High -- | Low -- °F
Precip. -- in
6:12 AM 7:13 PM
Waning Gibbous, 63% visible
Pressure 29.95 in
Visibility 5.0 miles
Clouds Scattered Clouds 7500 ft
Mostly Cloudy 10000 ft
Heat Index 72 °F
Dew Point 69 °F
Humidity 87%
Rainfall 0.00 in
Snow Depth Not available.
UV 0.0 out of 12
Pollen 8.60 out of 12
Air Quality Not available.
Flu Activity Not available.
METAR KBOS 040554Z 01005KT 5SM BR SCT075 BKN100 22/21 A2995 RMK AO2 RAE14 SLP142 P0000 60001 T02220206 10233 20211 51010
Pressure 29.95 in
Visibility 5.0 miles
Clouds Scattered Clouds 7500 ft
Mostly Cloudy 10000 ft
Heat Index 72 °F
Dew Point 69 °F
Humidity 87%
Rainfall 0.00 in
Snow Depth Not available.
UV 0.0 out of 12
Pollen 8.60 out of 12
Air Quality Not available.
Flu Activity Not available.
METAR KBOS 040554Z 01005KT 5SM BR SCT075 BKN100 22/21 A2995 RMK AO2 RAE14 SLP142 P0000 60001 T02220206 10233 20211 51010

10-Day Weather Forecast

×

Almanac

Astronomy

Sep. 04, 2015 Rise Set
Actual Time
Civil Twilight
Nautical Twilight
Astronomical Twilight
Moon
Length of Visible Light
Length of Day
Tomorrow will be .
, % of the Moon is Illuminated

Today's Extremes

State Highs State Lows

Community

WunderPhotos

Upload Photos

1,852,132 photos uploaded!

WunderBlogs® & News

Nearby

Air Quality

  Air Quality AQ Index Pollutant
Not available.

Snow Depth

Station Depth Elevation

Earthquake Activity

City Distance Mag. Time & Date
Minimum magnitude displayed is 2.5.

Coastal Water Temperatures

Place Temperature

Stations

Nearby Weather Stations

Station Location Temp. Windchill Dew Point Humidity Wind Precip. Elev Updated Type